createdAt,value
2023-02-08T00:02:07.010Z,35.90
2023-02-08T00:04:36.087Z,38.55
2023-02-08T00:07:04.594Z,38.03
2023-02-08T00:09:32.352Z,37.90
2023-02-08T00:12:00.309Z,39.67
2023-02-08T00:14:28.069Z,34.85
2023-02-08T00:16:56.026Z,37.28
2023-02-08T00:19:23.752Z,34.42
2023-02-08T00:21:52.834Z,34.53
2023-02-08T00:24:20.863Z,35.53
2023-02-08T00:26:48.595Z,34.78
2023-02-08T00:29:16.809Z,34.95
2023-02-08T00:31:44.605Z,36.03
2023-02-08T00:34:12.647Z,34.45
2023-02-08T00:36:40.378Z,36.17
2023-02-08T00:39:09.998Z,34.50
2023-02-08T00:41:37.740Z,36.63
2023-02-08T00:44:05.658Z,39.55
2023-02-08T00:46:33.781Z,38.58
2023-02-08T00:49:01.562Z,35.78
2023-02-08T00:51:29.316Z,38.55
2023-02-08T00:53:57.378Z,35.58
2023-02-08T00:56:26.431Z,36.28
2023-02-08T00:58:54.443Z,35.00
2023-02-08T01:01:22.198Z,31.67
2023-02-08T01:03:50.174Z,34.88
2023-02-08T01:06:19.035Z,34.08
2023-02-08T01:08:46.793Z,34.00
2023-02-08T01:11:15.567Z,33.35
2023-02-08T01:13:45.086Z,34.47
2023-02-08T01:16:14.229Z,35.85
2023-02-08T01:18:43.013Z,32.67
2023-02-08T01:21:11.683Z,34.30
2023-02-08T01:23:39.554Z,30.23
2023-02-08T01:26:08.230Z,31.10
2023-02-08T01:28:35.947Z,31.30
2023-02-08T01:31:06.896Z,32.90
2023-02-08T01:33:34.835Z,27.80
2023-02-08T01:36:02.819Z,33.50
2023-02-08T01:38:30.848Z,32.22
2023-02-08T01:40:58.635Z,31.40
2023-02-08T01:43:27.310Z,33.53
2023-02-08T01:45:55.530Z,31.05
2023-02-08T01:48:26.262Z,30.88
2023-02-08T07:34:42.320Z,28.48
2023-02-08T07:37:10.407Z,28.75
2023-02-08T07:39:38.151Z,30.92
2023-02-08T07:42:06.892Z,28.60
2023-02-08T07:44:34.893Z,30.80
2023-02-08T07:47:02.748Z,29.27
2023-02-08T07:49:30.663Z,32.42
2023-02-08T07:51:59.867Z,29.98
2023-02-08T07:54:27.782Z,30.23
2023-02-08T07:56:55.603Z,30.30
2023-02-08T07:59:23.609Z,32.00
2023-02-08T08:01:51.513Z,28.30
2023-02-08T08:04:19.778Z,29.00
2023-02-08T08:06:47.641Z,30.98
2023-02-08T08:09:16.701Z,30.52
2023-02-08T08:11:44.445Z,30.20
2023-02-08T08:14:12.294Z,28.50
2023-02-08T08:16:40.482Z,28.88
2023-02-08T08:19:08.248Z,29.45
2023-02-08T08:21:36.365Z,27.23
2023-02-08T08:24:04.248Z,30.92
2023-02-08T08:26:33.639Z,35.13
2023-02-08T08:29:03.029Z,32.67
2023-02-08T08:31:31.841Z,33.40
2023-02-08T08:33:59.588Z,29.13
2023-02-08T08:36:27.571Z,33.47
2023-02-08T08:38:55.541Z,31.70
2023-02-08T08:41:23.333Z,29.77
2023-02-08T08:43:52.445Z,28.40
2023-02-08T08:46:20.338Z,31.33
2023-02-08T08:48:48.323Z,31.33
2023-02-08T08:51:16.141Z,32.40
2023-02-08T08:53:43.913Z,31.45
2023-02-08T08:56:11.693Z,31.63
2023-02-08T08:58:39.691Z,30.40
2023-02-08T09:01:08.993Z,32.30
2023-02-08T09:03:37.244Z,31.33
2023-02-08T09:06:05.063Z,30.23
2023-02-08T09:08:32.813Z,29.42
2023-02-08T09:11:04.846Z,30.77
2023-02-08T09:13:32.604Z,34.45
2023-02-08T09:16:00.374Z,33.00
2023-02-08T09:18:29.503Z,32.50
2023-02-08T09:20:57.265Z,30.80
2023-02-08T09:23:25.274Z,30.42
2023-02-08T09:25:52.998Z,31.75
2023-02-08T09:28:20.761Z,29.77
2023-02-08T09:30:48.578Z,34.40
2023-02-08T09:33:16.372Z,31.15
2023-02-08T09:35:45.460Z,31.77
2023-02-08T09:38:13.238Z,32.97
2023-02-08T09:40:44.988Z,30.55
2023-02-08T09:43:15.304Z,32.53
2023-02-08T09:45:59.373Z,32.47
2023-02-08T09:48:29.552Z,31.52
2023-02-08T09:51:01.597Z,33.58
2023-02-08T09:53:32.567Z,32.78
2023-02-08T09:56:02.092Z,34.38
2023-02-08T09:58:31.795Z,33.38
2023-02-08T10:00:59.926Z,33.50
2023-02-08T10:03:34.294Z,33.30
2023-02-08T10:06:03.863Z,31.10
2023-02-08T10:08:35.524Z,34.67
2023-02-08T10:11:07.690Z,35.73
2023-02-08T10:13:42.231Z,34.13
2023-02-08T10:16:17.031Z,34.15
2023-02-08T10:18:47.566Z,34.03
2023-02-08T10:21:24.453Z,36.47
2023-02-08T10:24:06.361Z,39.45
2023-02-08T10:26:37.220Z,38.42
2023-02-08T10:29:19.338Z,36.38
2023-02-08T10:31:56.279Z,35.53
2023-02-08T10:34:30.859Z,35.25
2023-02-08T10:37:01.374Z,35.38
2023-02-08T10:39:30.657Z,36.17
2023-02-08T10:41:58.589Z,36.25
2023-02-08T10:44:32.279Z,35.53
2023-02-08T10:47:03.317Z,35.45
2023-02-08T10:49:36.068Z,33.95
2023-02-08T10:52:06.108Z,34.05
2023-02-08T10:54:35.339Z,36.80
2023-02-08T10:57:04.971Z,36.47
2023-02-08T10:59:34.564Z,37.85
2023-02-08T11:02:02.306Z,36.38
2023-02-08T11:04:30.347Z,37.42
2023-02-08T11:06:58.103Z,39.28
2023-02-08T11:09:29.321Z,35.97
2023-02-08T11:11:58.051Z,38.65
2023-02-08T11:14:35.096Z,36.75
2023-02-08T11:19:39.190Z,37.47
2023-02-08T11:22:07.738Z,35.72
2023-02-08T11:24:41.441Z,36.83
2023-02-08T11:27:17.191Z,37.63
2023-02-08T11:29:45.173Z,36.15
2023-02-08T11:32:17.089Z,37.17
2023-02-08T11:34:44.887Z,38.40
2023-02-08T11:37:16.479Z,38.63
2023-02-08T11:39:49.910Z,38.10
2023-02-08T11:42:20.549Z,37.13
2023-02-08T11:44:49.060Z,35.50
2023-02-08T11:47:19.858Z,36.25
2023-02-08T11:49:53.220Z,36.10
2023-02-08T11:52:22.131Z,37.88
2023-02-08T11:54:51.448Z,33.42
2023-02-08T11:57:20.602Z,32.58
2023-02-08T11:59:48.618Z,37.15
2023-02-08T12:02:29.086Z,36.78
2023-02-08T12:04:57.087Z,38.08
2023-02-08T12:07:31.044Z,38.17
2023-02-08T12:10:15.717Z,33.80
2023-02-08T12:12:53.047Z,33.95
2023-02-08T12:15:26.009Z,38.55
2023-02-08T12:18:00.699Z,37.65
2023-02-08T12:20:37.134Z,35.97
2023-02-08T12:23:15.434Z,35.70
2023-02-08T12:25:47.330Z,39.17
2023-02-08T12:28:18.772Z,37.67
2023-02-08T12:30:50.070Z,39.70
2023-02-08T12:33:29.456Z,33.75
2023-02-08T12:36:08.127Z,38.67
2023-02-08T12:39:18.641Z,37.03
2023-02-08T12:41:53.666Z,37.08
2023-02-08T12:44:35.868Z,36.28
2023-02-08T12:47:10.030Z,34.50
2023-02-08T12:49:48.479Z,35.65
2023-02-08T12:52:22.695Z,34.42
2023-02-08T12:54:54.072Z,35.28
2023-02-08T12:57:25.754Z,34.85
2023-02-08T12:59:55.859Z,36.03
2023-02-08T13:02:26.739Z,31.98
2023-02-08T13:04:59.517Z,30.70
2023-02-08T13:07:29.254Z,31.75
2023-02-08T13:09:58.496Z,33.65
2023-02-08T13:12:31.434Z,35.90
2023-02-08T13:17:30.021Z,31.00
2023-02-08T13:20:00.786Z,32.97
2023-02-08T13:22:32.573Z,34.25
2023-02-08T13:25:07.576Z,31.70
2023-02-08T13:27:37.315Z,29.88
2023-02-08T13:30:06.490Z,30.98
2023-02-08T13:32:37.556Z,31.65
2023-02-08T13:35:12.590Z,31.17
2023-02-08T13:37:40.751Z,31.25
2023-02-08T13:40:09.941Z,32.97
2023-02-08T13:42:42.779Z,28.88
2023-02-08T13:45:11.612Z,30.75
2023-02-08T13:47:43.744Z,30.10
2023-02-08T13:50:28.856Z,29.92
2023-02-08T13:52:57.133Z,29.35
2023-02-08T13:55:42.780Z,27.55
2023-02-08T13:58:26.093Z,27.63
2023-02-08T14:03:23.643Z,25.33
2023-02-08T14:05:53.608Z,25.73
2023-02-08T14:08:23.920Z,26.63
2023-02-08T14:11:01.304Z,29.38
2023-02-08T14:13:29.965Z,27.52
2023-02-08T14:16:16.336Z,27.52
2023-02-08T14:18:53.082Z,26.05
2023-02-08T14:21:28.412Z,29.42
2023-02-08T14:24:03.626Z,26.55
2023-02-08T14:26:31.764Z,25.65
2023-02-08T14:29:00.773Z,27.00
2023-02-08T14:31:42.533Z,30.67
2023-02-08T14:34:29.532Z,26.75
2023-02-08T14:37:02.527Z,27.10
2023-02-08T14:39:33.366Z,28.10
2023-02-08T14:42:04.107Z,26.80
2023-02-08T14:44:55.884Z,26.17
2023-02-08T14:47:42.945Z,27.98
2023-02-08T14:50:16.644Z,29.25
2023-02-08T14:52:47.727Z,27.50
2023-02-08T14:55:17.585Z,27.42
2023-02-08T14:57:45.914Z,25.73
2023-02-08T15:00:19.588Z,26.80
2023-02-08T15:02:47.457Z,28.25
2023-02-08T15:05:22.049Z,28.85
2023-02-08T15:07:52.019Z,28.52
2023-02-08T15:10:20.853Z,29.05
2023-02-08T15:12:50.554Z,28.90
2023-02-08T15:15:24.003Z,30.73
2023-02-08T15:17:52.447Z,28.63
2023-02-08T15:20:21.757Z,29.92
2023-02-08T15:22:58.634Z,30.15
2023-02-08T15:25:27.927Z,32.30
2023-02-08T15:27:57.593Z,34.00
2023-02-08T15:30:35.563Z,33.63
2023-02-08T15:33:04.403Z,33.33
2023-02-08T15:35:34.383Z,36.05
2023-02-08T15:38:05.343Z,36.13
2023-02-08T15:40:34.481Z,36.42
2023-02-08T15:43:11.860Z,34.67
2023-02-08T15:45:40.052Z,35.88
2023-02-08T15:48:08.922Z,35.08
2023-02-08T15:50:36.735Z,38.28
2023-02-08T15:53:07.648Z,37.08
2023-02-08T15:55:37.879Z,38.33
2023-02-08T15:58:08.089Z,37.92
2023-02-08T16:00:37.747Z,37.70
2023-02-08T16:03:08.380Z,37.30
2023-02-08T16:05:37.151Z,35.58
2023-02-08T16:08:06.489Z,37.20
2023-02-08T16:10:36.665Z,37.00
2023-02-08T16:13:06.041Z,37.40
2023-02-08T16:15:37.990Z,37.55
2023-02-08T16:18:05.793Z,40.60
2023-02-08T16:20:35.064Z,37.85
2023-02-08T16:23:04.070Z,37.85
2023-02-08T16:25:38.363Z,37.00
2023-02-08T16:28:06.904Z,36.27
2023-02-08T16:30:34.789Z,41.65
2023-02-08T16:33:09.084Z,38.28
2023-02-08T16:35:38.817Z,37.10
2023-02-08T16:38:10.001Z,39.85
2023-02-08T16:40:44.969Z,36.30
2023-02-08T16:43:16.778Z,36.15
2023-02-08T16:45:44.528Z,37.65
2023-02-08T16:48:28.777Z,37.20
2023-02-08T16:50:56.646Z,41.28
2023-02-08T16:53:36.680Z,47.10
2023-02-08T16:56:11.610Z,47.25
2023-02-08T16:58:39.481Z,42.80
2023-02-08T17:01:07.411Z,42.00
2023-02-08T17:03:38.030Z,39.72
2023-02-08T17:06:06.162Z,40.30
2023-02-08T17:08:35.826Z,41.95
2023-02-08T17:11:03.571Z,41.72
2023-02-08T17:13:32.636Z,38.20
2023-02-08T17:16:01.209Z,36.13
2023-02-08T17:18:29.062Z,41.22
2023-02-08T17:20:59.778Z,32.50
2023-02-08T17:23:27.697Z,32.85
2023-02-08T17:25:55.516Z,32.53
2023-02-08T17:28:23.529Z,30.52
2023-02-08T17:30:53.169Z,31.90
2023-02-08T17:33:21.002Z,29.92
2023-02-08T17:35:49.361Z,29.48
2023-02-08T17:38:17.532Z,29.25
2023-02-08T17:40:45.741Z,27.92
2023-02-08T17:43:13.996Z,28.92
2023-02-08T17:45:42.894Z,29.55
2023-02-08T17:48:13.312Z,30.40
2023-02-08T17:50:41.964Z,34.60
2023-02-08T17:53:10.150Z,37.00
2023-02-08T17:55:38.081Z,37.05
2023-02-08T17:58:05.796Z,37.67
2023-02-08T18:00:34.703Z,39.00
2023-02-08T18:03:03.260Z,39.40
2023-02-08T18:05:32.503Z,35.15
2023-02-08T18:08:00.520Z,34.90
2023-02-08T18:10:28.870Z,33.72
2023-02-08T18:12:56.950Z,31.73
2023-02-08T18:15:25.341Z,32.20
2023-02-08T18:17:53.124Z,33.05
2023-02-08T18:20:20.969Z,32.90
2023-02-08T18:22:50.403Z,32.65
2023-02-08T18:25:19.174Z,32.47
2023-02-08T18:27:47.501Z,31.38
2023-02-08T18:30:15.256Z,32.97
2023-02-08T18:32:42.991Z,30.40
2023-02-08T18:35:11.061Z,31.27
2023-02-08T18:37:39.059Z,32.03
2023-02-08T18:40:09.048Z,34.53
2023-02-08T18:42:36.815Z,32.28
2023-02-08T18:45:04.775Z,31.30
2023-02-08T18:47:32.793Z,31.50
2023-02-08T18:50:00.543Z,31.05
2023-02-08T18:52:29.607Z,30.25
2023-02-08T18:54:59.027Z,28.40
2023-02-08T18:57:28.445Z,29.65
2023-02-08T18:59:56.300Z,31.48
2023-02-08T19:02:26.548Z,30.88
2023-02-08T19:04:54.647Z,28.25
2023-02-08T19:07:22.423Z,29.13
2023-02-08T19:09:50.180Z,27.67
2023-02-08T19:12:19.133Z,28.75
2023-02-08T19:14:51.488Z,27.85
2023-02-08T19:17:19.742Z,28.30
2023-02-08T19:19:47.629Z,29.15
2023-02-08T19:22:15.667Z,27.77
2023-02-08T19:24:43.458Z,26.55
2023-02-08T19:27:11.258Z,26.60
2023-02-08T19:29:39.065Z,27.77
2023-02-08T19:32:08.804Z,27.20
2023-02-08T19:34:36.658Z,27.85
2023-02-08T19:37:04.670Z,29.48
2023-02-08T19:39:32.796Z,30.98
2023-02-08T19:42:00.650Z,30.85
2023-02-08T19:44:32.835Z,29.25
2023-02-08T19:47:00.903Z,30.40
2023-02-08T19:49:30.039Z,30.73
2023-02-08T19:51:58.175Z,31.17
2023-02-08T19:54:26.017Z,29.63
2023-02-08T19:56:54.854Z,31.48
2023-02-08T19:59:24.759Z,32.38
2023-02-08T20:01:52.652Z,31.95
2023-02-08T20:04:20.609Z,30.23
2023-02-08T20:06:51.442Z,30.60
2023-02-08T20:09:19.181Z,33.53
2023-02-08T20:12:02.480Z,30.63
2023-02-08T20:14:33.068Z,29.92
2023-02-08T20:17:01.036Z,30.45
2023-02-08T20:19:29.211Z,30.90
2023-02-08T20:21:58.513Z,29.98
2023-02-08T20:24:26.300Z,32.35
2023-02-08T20:26:54.450Z,33.22
2023-02-08T20:29:22.710Z,32.33
2023-02-08T20:31:55.600Z,29.83
2023-02-08T20:34:23.712Z,30.15
2023-02-08T20:37:06.429Z,32.67
2023-02-08T20:39:37.250Z,32.03
2023-02-08T20:42:05.213Z,28.20
2023-02-08T20:44:33.099Z,28.05
2023-02-08T20:47:01.128Z,27.02
2023-02-08T20:49:30.933Z,24.48
2023-02-08T20:51:58.985Z,27.73
2023-02-08T20:54:26.767Z,24.67
2023-02-08T20:56:56.167Z,23.65
2023-02-08T20:59:24.308Z,23.55
2023-02-08T21:01:52.171Z,24.77
2023-02-08T21:04:23.181Z,23.02
2023-02-08T21:06:51.742Z,24.52
2023-02-08T21:09:20.005Z,22.88
2023-02-08T21:11:48.144Z,22.50
2023-02-08T21:14:19.073Z,22.98
2023-02-08T21:16:48.119Z,23.42
2023-02-08T21:19:17.162Z,23.48
2023-02-08T21:21:45.031Z,24.63
2023-02-08T21:24:13.076Z,24.58
2023-02-08T21:26:40.977Z,23.33
2023-02-08T21:29:08.733Z,22.02
2023-02-08T21:31:38.067Z,20.90
2023-02-08T21:34:06.278Z,21.98
2023-02-08T21:36:34.460Z,20.42
2023-02-08T21:39:02.228Z,20.13
2023-02-08T21:41:31.821Z,21.02
2023-02-08T21:44:00.982Z,21.80
2023-02-08T21:46:28.881Z,20.92
2023-02-08T21:49:15.862Z,20.67
2023-02-08T21:52:01.364Z,22.70
2023-02-08T21:54:42.502Z,21.67
2023-02-08T21:57:11.831Z,21.63
2023-02-08T21:59:39.984Z,20.85
2023-02-08T22:02:08.833Z,19.80
2023-02-08T22:04:55.472Z,20.75
2023-02-08T22:07:24.092Z,20.10
2023-02-08T22:09:52.098Z,19.98
2023-02-08T22:12:21.552Z,21.40
2023-02-08T22:14:50.468Z,19.75
2023-02-08T22:17:18.244Z,21.27
2023-02-08T22:19:47.635Z,18.98
2023-02-08T22:22:15.368Z,18.58
2023-02-08T22:24:43.386Z,20.00
2023-02-08T22:27:11.437Z,19.42
2023-02-08T22:29:39.410Z,21.75
2023-02-08T22:32:09.809Z,20.05
2023-02-08T22:34:38.180Z,20.98
2023-02-08T22:37:07.263Z,19.42
2023-02-08T22:39:35.945Z,20.92
2023-02-08T22:42:08.136Z,18.80
2023-02-08T22:44:36.479Z,20.40
2023-02-08T22:47:06.424Z,20.60
2023-02-08T22:49:35.005Z,19.48
2023-02-08T22:52:02.854Z,19.38
2023-02-08T22:54:32.212Z,20.52
2023-02-08T22:56:59.979Z,18.33
2023-02-08T22:59:27.750Z,20.83
2023-02-08T23:01:55.849Z,19.50
2023-02-08T23:04:23.731Z,19.33
2023-02-08T23:06:51.940Z,18.90
2023-02-08T23:09:19.966Z,19.63
2023-02-08T23:15:17.237Z,18.80
2023-02-08T23:17:45.199Z,19.85
2023-02-08T23:20:13.026Z,19.48
2023-02-08T23:22:40.852Z,19.13
2023-02-08T23:25:09.024Z,20.23
2023-02-08T23:27:36.876Z,20.80
2023-02-08T23:30:05.044Z,19.40
2023-02-08T23:39:33.267Z,20.00
2023-02-08T23:42:01.100Z,19.08
2023-02-08T23:44:29.122Z,19.13
2023-02-08T23:46:56.873Z,20.10
2023-02-08T23:49:24.944Z,22.52
2023-02-08T23:51:53.624Z,21.00
2023-02-08T23:54:21.387Z,19.67
2023-02-08T23:56:51.919Z,20.42
2023-02-08T23:59:19.662Z,19.60
